Terminal Aerodrome Forecast
Issued by NWS Detroit/Pontiac, MI

Home | Current Version | Previous Version | Text Only | Print | Product List | Glossary On
Versions: 1 2 3 4 5 6 7 8 9 10 11 12 13
000
FTUS43 KDTX 251700
TAFFNT
TAF
KFNT 251724Z 2518/2618 24012KT P6SM SCT050 BKN180
     FM260300 20005KT P6SM OVC100
     FM260700 20005KT P6SM BKN080 OVC150
     FM261100 20007KT 5SM -SHRA BR BKN040 OVC080
     FM261400 20010KT P6SM OVC040=

USA.gov is the U.S. government's official web portal to all federal, state and local government web resources and services.